Time;durP1;ratioP1;P1;durP2;ratioP2;P2;SDS_P1;SDS_P2;PMS_P1;PMS_P2;Temp;Humidity;BMP_temperature;BMP_pressure;BME280_temperature;BME280_humidity;BME280_pressure;Samples;Min_cycle;Max_cycle;Signal;HPM_P1;HPM_P2
2021/12/14 00:01:17;;;;;;;14.32;10.60;;;8.80;99.90;;;;;;5072964;28;20086;-76
2021/12/14 00:03:45;;;;;;;15.07;10.65;;;8.70;99.90;;;;;;5072854;28;20072;-75
2021/12/14 00:06:12;;;;;;;13.60;10.18;;;8.70;99.90;;;;;;5072341;28;20133;-75
2021/12/14 00:08:53;;;;;;;19.05;11.23;;;8.70;99.90;;;;;;5072355;28;20039;-75
2021/12/14 00:15:01;;;;;;;14.38;10.25;;;8.80;99.90;;;;;;5072632;28;20033;-75
2021/12/14 00:17:01;;;;;;;16.85;11.00;;;8.70;99.90;;;;;;5072234;28;20024;-75
2021/12/14 00:19:28;;;;;;;13.07;10.23;;;8.60;99.90;;;;;;5072007;28;20040;-75
2021/12/14 00:22:02;;;;;;;13.65;10.18;;;8.50;99.90;;;;;;5072475;28;20044;-74
2021/12/14 00:24:29;;;;;;;16.05;9.68;;;8.50;99.90;;;;;;5072484;28;20029;-74
2021/12/14 00:27:00;;;;;;;15.63;10.18;;;8.60;99.90;;;;;;5071025;28;20082;-75
2021/12/14 00:29:30;;;;;;;13.00;9.80;;;8.60;99.90;;;;;;5072417;28;20108;-77
2021/12/14 00:32:00;;;;;;;13.02;9.77;;;8.50;99.90;;;;;;5070988;28;20473;-77
2021/12/14 00:34:37;;;;;;;13.30;9.35;;;8.60;99.90;;;;;;5072233;28;20111;-77
2021/12/14 00:37:06;;;;;;;13.73;10.27;;;8.70;99.90;;;;;;5071479;28;20032;-75
2021/12/14 00:39:32;;;;;;;14.30;10.05;;;8.80;99.90;;;;;;5071169;28;20366;-75
2021/12/14 00:41:58;;;;;;;13.98;10.10;;;8.70;99.90;;;;;;5072069;28;20119;-75
2021/12/14 00:44:24;;;;;;;14.98;10.25;;;8.60;99.90;;;;;;5071023;28;20123;-74
2021/12/14 00:46:51;;;;;;;16.80;10.15;;;8.50;99.90;;;;;;5070969;28;20060;-75
2021/12/14 00:49:17;;;;;;;13.45;9.45;;;8.50;99.90;;;;;;5071795;28;20052;-75
2021/12/14 00:51:44;;;;;;;17.67;10.65;;;8.50;99.90;;;;;;5071313;28;20039;-75
2021/12/14 00:54:12;;;;;;;14.35;9.93;;;8.80;99.90;;;;;;5074639;28;20028;-75
2021/12/14 00:56:40;;;;;;;17.75;10.43;;;8.80;99.90;;;;;;5074563;28;20020;-75
2021/12/14 00:59:08;;;;;;;16.98;10.60;;;8.70;99.90;;;;;;5075862;28;20029;-77
2021/12/14 01:01:39;;;;;;;13.57;10.63;;;8.70;99.90;;;;;;5063844;28;20086;-75
2021/12/14 01:04:15;;;;;;;12.63;9.98;;;8.70;99.90;;;;;;5055476;28;20436;-75
2021/12/14 01:06:45;;;;;;;14.85;10.38;;;8.70;99.90;;;;;;5054211;28;20087;-74
2021/12/14 01:09:17;;;;;;;14.47;10.70;;;8.60;99.90;;;;;;5054154;28;20055;-75
2021/12/14 01:11:46;;;;;;;13.43;9.75;;;8.70;99.90;;;;;;5055548;28;20763;-78
2021/12/14 01:14:28;;;;;;;17.77;11.35;;;8.60;99.90;;;;;;5055542;28;20112;-78
2021/12/14 01:17:10;;;;;;;15.32;10.70;;;8.50;99.90;;;;;;5055158;28;20028;-78
2021/12/14 01:19:39;;;;;;;14.95;10.63;;;8.50;99.90;;;;;;5053833;28;20127;-78
2021/12/14 01:25:18;;;;;;;14.38;10.60;;;8.50;99.90;;;;;;5056839;28;20033;-77
2021/12/14 01:28:01;;;;;;;13.85;10.80;;;8.60;99.90;;;;;;5073891;28;20036;-77
2021/12/14 01:30:28;;;;;;;15.82;10.50;;;8.50;99.90;;;;;;5073880;28;20033;-75
2021/12/14 01:32:56;;;;;;;15.55;10.85;;;8.60;99.90;;;;;;5073604;28;20036;-76
2021/12/14 01:35:29;;;;;;;15.65;10.32;;;8.70;99.90;;;;;;5073885;28;20496;-77
2021/12/14 01:38:16;;;;;;;18.40;10.50;;;8.60;99.90;;;;;;5073772;28;20021;-76
2021/12/14 01:40:53;;;;;;;17.00;11.00;;;8.50;99.90;;;;;;5073771;28;20054;-77
2021/12/14 01:43:42;;;;;;;14.98;10.80;;;8.60;99.90;;;;;;5073570;28;20047;-77
2021/12/14 01:46:25;;;;;;;19.02;11.05;;;8.60;99.90;;;;;;5073508;28;20036;-77
2021/12/14 01:48:57;;;;;;;16.13;10.77;;;8.80;99.90;;;;;;5057695;28;20044;-76
2021/12/14 01:51:50;;;;;;;15.65;11.50;;;8.90;99.90;;;;;;5074578;28;20048;-77
2021/12/14 01:54:30;;;;;;;15.77;11.40;;;8.90;99.90;;;;;;5073391;28;20480;-76
2021/12/14 01:56:56;;;;;;;17.17;11.30;;;8.90;99.90;;;;;;5073599;28;20298;-77
2021/12/14 01:59:34;;;;;;;16.92;10.73;;;8.80;99.90;;;;;;5073368;28;20366;-77
2021/12/14 02:02:10;;;;;;;13.60;10.45;;;8.80;99.90;;;;;;5072971;28;20082;-76
2021/12/14 02:04:42;;;;;;;18.60;10.98;;;8.80;99.90;;;;;;5072532;28;20020;-77
2021/12/14 02:07:09;;;;;;;15.83;11.03;;;8.70;99.90;;;;;;5073369;28;20455;-77
2021/12/14 02:09:40;;;;;;;17.00;11.00;;;8.80;99.90;;;;;;5052959;28;20116;-77
2021/12/14 02:12:12;;;;;;;15.70;10.95;;;8.70;99.90;;;;;;5053309;28;20031;-77
2021/12/14 02:14:39;;;;;;;18.75;10.25;;;8.50;99.90;;;;;;5052784;28;20119;-78
2021/12/14 02:17:11;;;;;;;16.23;11.38;;;8.50;99.90;;;;;;5053086;28;20060;-77
2021/12/14 02:19:39;;;;;;;18.52;11.13;;;8.40;99.90;;;;;;5052858;28;20032;-78
2021/12/14 02:22:07;;;;;;;22.02;13.10;;;8.40;99.90;;;;;;5054295;28;20029;-78
2021/12/14 02:24:37;;;;;;;16.10;11.48;;;8.50;99.90;;;;;;5052755;28;20025;-77
2021/12/14 02:27:03;;;;;;;18.00;11.93;;;8.40;99.90;;;;;;5072370;28;20036;-78
2021/12/14 02:29:36;;;;;;;21.73;12.30;;;8.40;99.90;;;;;;5072260;28;20052;-78
2021/12/14 02:32:10;;;;;;;19.17;12.32;;;8.40;99.90;;;;;;5073009;28;20063;-78
2021/12/14 02:34:40;;;;;;;17.70;12.70;;;8.40;99.90;;;;;;5073865;28;20021;-77
2021/12/14 02:37:07;;;;;;;20.20;12.43;;;8.30;99.90;;;;;;5072607;28;20028;-77
2021/12/14 02:42:15;;;;;;;18.38;12.88;;;8.40;99.90;;;;;;5072712;28;20500;-77
2021/12/14 02:44:46;;;;;;;21.42;12.93;;;8.40;99.90;;;;;;5055639;28;20148;-77
2021/12/14 02:47:16;;;;;;;18.08;12.73;;;8.30;99.90;;;;;;5072403;28;20031;-78
2021/12/14 02:49:44;;;;;;;19.15;13.27;;;8.40;99.90;;;;;;5072278;28;20025;-78
2021/12/14 02:52:20;;;;;;;21.50;12.90;;;8.40;99.90;;;;;;5072493;28;20063;-78
2021/12/14 02:54:52;;;;;;;28.58;13.02;;;8.50;99.90;;;;;;5071447;28;20056;-77
2021/12/14 02:57:26;;;;;;;20.02;11.88;;;8.40;99.90;;;;;;5056341;28;20033;-78
2021/12/14 02:59:54;;;;;;;20.38;12.75;;;8.30;99.90;;;;;;5073076;28;20029;-78
2021/12/14 03:02:29;;;;;;;19.08;13.52;;;8.30;99.90;;;;;;5055630;28;20485;-78
2021/12/14 03:04:59;;;;;;;20.45;13.35;;;8.40;99.90;;;;;;5072043;28;20438;-78
2021/12/14 03:07:30;;;;;;;22.15;14.05;;;8.40;99.90;;;;;;5072076;28;20488;-78
2021/12/14 03:10:17;;;;;;;26.63;15.48;;;8.40;99.90;;;;;;5055593;28;20489;-78
2021/12/14 03:12:51;;;;;;;24.20;14.93;;;8.40;99.90;;;;;;5051858;28;20073;-77
2021/12/14 03:15:20;;;;;;;18.88;13.75;;;8.40;99.90;;;;;;5034263;28;20024;-78
2021/12/14 03:17:50;;;;;;;22.17;14.88;;;8.40;99.90;;;;;;5035453;28;20063;-76
2021/12/14 03:20:31;;;;;;;20.55;13.82;;;8.30;99.90;;;;;;5051681;28;20389;-77
2021/12/14 03:23:02;;;;;;;21.13;13.80;;;8.20;99.90;;;;;;5051970;28;20431;-77
2021/12/14 03:25:32;;;;;;;24.33;15.80;;;8.30;99.90;;;;;;5057038;28;20473;-77
2021/12/14 03:27:58;;;;;;;26.83;14.93;;;8.30;99.90;;;;;;5071306;28;20056;-77
2021/12/14 03:30:27;;;;;;;20.17;15.07;;;8.30;99.90;;;;;;5073054;28;20499;-79
2021/12/14 03:32:57;;;;;;;23.83;15.65;;;8.30;99.90;;;;;;5046270;28;20059;-78
2021/12/14 03:35:45;;;;;;;23.25;16.30;;;8.30;99.90;;;;;;5066947;28;20035;-77
2021/12/14 03:38:19;;;;;;;22.77;15.38;;;8.20;99.90;;;;;;5053371;28;20060;-77
2021/12/14 03:41:06;;;;;;;23.42;16.30;;;8.20;99.90;;;;;;5061387;28;20036;-77
2021/12/14 03:43:34;;;;;;;23.10;16.17;;;8.20;99.90;;;;;;5085090;28;20070;-77
2021/12/14 03:46:04;;;;;;;24.25;16.58;;;8.30;99.90;;;;;;5070945;28;20107;-77
2021/12/14 03:48:33;;;;;;;24.63;15.50;;;8.40;99.90;;;;;;5055177;28;20033;-76
2021/12/14 03:51:01;;;;;;;25.80;15.57;;;8.40;99.90;;;;;;5060038;28;20140;-77
2021/12/14 03:53:27;;;;;;;25.02;16.50;;;8.20;99.90;;;;;;5053009;28;20466;-77
2021/12/14 03:55:58;;;;;;;25.63;15.52;;;8.30;99.90;;;;;;5051318;28;20114;-77
2021/12/14 03:58:32;;;;;;;25.55;17.10;;;8.20;99.90;;;;;;5052910;28;20032;-77
2021/12/14 04:01:03;;;;;;;30.38;18.08;;;8.40;99.90;;;;;;5071329;28;20056;-77
2021/12/14 04:03:36;;;;;;;28.73;18.40;;;8.40;99.90;;;;;;5055646;28;20093;-76
2021/12/14 04:06:13;;;;;;;28.88;18.17;;;8.40;99.90;;;;;;5071364;28;20134;-76
2021/12/14 04:08:40;;;;;;;26.02;17.45;;;8.40;99.90;;;;;;5071418;28;20031;-76
2021/12/14 04:11:08;;;;;;;27.13;18.58;;;8.40;99.90;;;;;;5070942;28;20020;-77
2021/12/14 04:13:45;;;;;;;29.35;18.45;;;8.30;99.90;;;;;;5054832;28;20024;-77
2021/12/14 04:16:18;;;;;;;34.95;19.58;;;8.40;99.90;;;;;;5070943;28;20020;-77
2021/12/14 04:18:45;;;;;;;31.60;20.08;;;8.30;99.90;;;;;;5071047;28;20070;-77
2021/12/14 04:21:12;;;;;;;30.13;20.77;;;8.20;99.90;;;;;;5071456;28;20149;-77
2021/12/14 04:23:44;;;;;;;31.42;19.63;;;8.30;99.90;;;;;;5054357;28;20504;-76
2021/12/14 04:26:14;;;;;;;33.55;21.42;;;8.20;99.90;;;;;;5070755;28;20512;-77
2021/12/14 04:28:49;;;;;;;34.60;22.25;;;8.20;99.90;;;;;;5076263;28;20028;-77
2021/12/14 04:31:16;;;;;;;36.85;22.40;;;8.30;99.90;;;;;;5075085;28;20038;-77
2021/12/14 04:33:46;;;;;;;41.45;22.17;;;8.30;99.90;;;;;;5075212;28;20447;-76
2021/12/14 04:36:20;;;;;;;35.95;22.63;;;8.40;99.90;;;;;;5075220;28;20097;-77
2021/12/14 04:38:58;;;;;;;34.75;22.02;;;8.40;99.90;;;;;;5074634;28;20461;-76
2021/12/14 04:52:55;;;;;;;31.63;21.83;;;8.30;99.90;;;;;;5054656;28;20040;-77
2021/12/14 04:55:21;;;;;;;35.90;22.27;;;8.30;99.90;;;;;;5054305;28;20024;-77
2021/12/14 04:57:48;;;;;;;35.38;22.52;;;8.30;99.90;;;;;;5054361;28;20043;-76
2021/12/14 05:00:31;;;;;;;39.97;22.55;;;8.40;99.90;;;;;;5038001;28;20082;-77
2021/12/14 05:03:10;;;;;;;39.13;24.58;;;8.40;99.90;;;;;;5054096;28;20041;-77
2021/12/14 05:05:45;;;;;;;36.88;22.83;;;8.40;99.90;;;;;;5054699;28;20164;-77
2021/12/14 05:10:59;;;;;;;39.28;23.40;;;8.40;99.90;;;;;;5073950;28;20032;-77
2021/12/14 05:13:40;;;;;;;40.83;23.73;;;8.30;99.90;;;;;;5057729;28;20429;-77
2021/12/14 05:16:23;;;;;;;37.85;22.75;;;8.40;99.90;;;;;;5074217;28;20028;-78
2021/12/14 05:18:54;;;;;;;42.60;24.65;;;8.40;99.90;;;;;;5073920;28;20385;-77
2021/12/14 05:21:42;;;;;;;42.50;24.40;;;8.50;99.90;;;;;;5074382;28;20035;-77
2021/12/14 05:24:14;;;;;;;46.63;26.00;;;8.40;99.90;;;;;;5073902;28;20032;-77
2021/12/14 05:26:49;;;;;;;43.97;23.90;;;8.40;99.90;;;;;;5073629;28;20024;-77
2021/12/14 05:29:22;;;;;;;42.78;24.23;;;8.40;99.90;;;;;;5074093;28;20031;-78
2021/12/14 05:31:51;;;;;;;38.47;23.77;;;8.40;99.90;;;;;;5074319;28;20052;-77
2021/12/14 05:34:24;;;;;;;44.40;24.40;;;8.30;99.90;;;;;;5073907;28;20021;-78
2021/12/14 05:36:55;;;;;;;45.50;24.42;;;8.20;99.90;;;;;;5073750;28;20028;-78
2021/12/14 05:45:25;;;;;;;43.95;25.40;;;8.30;99.90;;;;;;5073522;28;20532;-77
2021/12/14 05:47:55;;;;;;;45.35;24.73;;;8.30;99.90;;;;;;5073721;28;20028;-78
2021/12/14 05:50:44;;;;;;;42.35;23.85;;;8.30;99.90;;;;;;5058137;28;20124;-77
2021/12/14 05:53:19;;;;;;;44.22;24.23;;;8.10;99.90;;;;;;5073288;28;20029;-77
2021/12/14 05:55:45;;;;;;;43.55;23.92;;;8.20;99.90;;;;;;5056763;28;20032;-77
2021/12/14 05:58:22;;;;;;;43.45;23.23;;;8.20;99.90;;;;;;5068997;28;20025;-79
2021/12/14 06:00:57;;;;;;;40.53;23.52;;;8.20;99.90;;;;;;5053341;28;20170;-77
2021/12/14 06:03:29;;;;;;;42.72;24.08;;;8.30;99.90;;;;;;5053425;28;20037;-78
2021/12/14 06:05:57;;;;;;;41.03;24.25;;;8.40;99.90;;;;;;5053233;28;20040;-78
2021/12/14 06:08:34;;;;;;;44.22;24.00;;;8.40;99.90;;;;;;5052789;28;20052;-78
2021/12/14 06:11:25;;;;;;;43.42;24.55;;;8.40;99.90;;;;;;5053398;28;20074;-78
2021/12/14 06:13:53;;;;;;;47.25;24.50;;;8.40;99.90;;;;;;5052993;28;20043;-78
2021/12/14 06:16:25;;;;;;;41.67;25.10;;;8.50;99.90;;;;;;5053155;28;20141;-78
2021/12/14 06:18:51;;;;;;;44.53;24.35;;;8.40;99.90;;;;;;5052661;28;20116;-77
2021/12/14 06:21:32;;;;;;;40.50;23.88;;;8.30;99.90;;;;;;5052952;28;20159;-78
2021/12/14 06:24:03;;;;;;;42.80;24.25;;;8.40;99.90;;;;;;5052936;28;20091;-78
2021/12/14 06:26:37;;;;;;;46.10;25.60;;;8.40;99.90;;;;;;5066978;28;20020;-78
2021/12/14 06:29:13;;;;;;;47.95;24.88;;;8.30;99.90;;;;;;5072568;28;20028;-77
2021/12/14 06:31:41;;;;;;;49.65;27.13;;;8.40;99.90;;;;;;5074168;28;20056;-78
2021/12/14 06:34:33;;;;;;;44.83;26.00;;;8.50;99.90;;;;;;5074037;28;20039;-78
2021/12/14 06:37:27;;;;;;;44.00;24.60;;;8.50;99.90;;;;;;5071183;28;20029;-77
2021/12/14 06:40:16;;;;;;;47.42;25.98;;;8.30;99.90;;;;;;5055742;28;20032;-78
2021/12/14 06:42:54;;;;;;;50.13;26.30;;;8.40;99.90;;;;;;5069413;28;20052;-77
2021/12/14 06:45:34;;;;;;;50.10;27.60;;;8.30;99.90;;;;;;5072562;28;20021;-77
2021/12/14 06:48:07;;;;;;;48.10;25.80;;;8.20;99.90;;;;;;5072309;28;20033;-77
2021/12/14 06:51:09;;;;;;;45.58;26.33;;;8.20;99.90;;;;;;5071757;28;20020;-77
2021/12/14 06:53:51;;;;;;;52.17;26.60;;;8.40;99.90;;;;;;5056132;28;20029;-77
2021/12/14 06:56:51;;;;;;;48.47;26.10;;;8.30;99.90;;;;;;5073099;28;20072;-78
2021/12/14 06:59:29;;;;;;;52.72;27.48;;;8.30;99.90;;;;;;5072384;28;20082;-77
2021/12/14 07:02:08;;;;;;;57.17;27.63;;;8.40;99.90;;;;;;5073182;28;20392;-77
2021/12/14 07:04:45;;;;;;;46.63;26.17;;;8.40;99.90;;;;;;5071791;28;20098;-77
2021/12/14 07:07:13;;;;;;;61.65;31.20;;;8.40;99.90;;;;;;5071854;28;20034;-77
2021/12/14 07:09:47;;;;;;;57.22;28.63;;;8.60;99.90;;;;;;5057319;28;20033;-77
2021/12/14 07:12:34;;;;;;;53.22;28.05;;;8.50;99.90;;;;;;5053097;28;20033;-77
2021/12/14 07:15:23;;;;;;;55.58;28.42;;;8.40;99.90;;;;;;5051787;28;20025;-78
2021/12/14 07:18:00;;;;;;;53.15;28.15;;;8.40;99.90;;;;;;5053159;28;20155;-77
2021/12/14 07:20:33;;;;;;;54.53;28.00;;;8.30;99.90;;;;;;5052750;28;20037;-77
2021/12/14 07:23:21;;;;;;;55.90;28.35;;;8.30;99.90;;;;;;5051912;28;20377;-77
2021/12/14 07:25:55;;;;;;;54.00;28.38;;;8.40;99.90;;;;;;5062342;28;20041;-78
2021/12/14 07:28:22;;;;;;;59.58;30.52;;;8.30;99.90;;;;;;5073022;28;20024;-78
2021/12/14 07:30:55;;;;;;;66.88;29.38;;;8.30;99.90;;;;;;5070509;28;20024;-78
2021/12/14 07:33:24;;;;;;;55.55;28.50;;;8.30;99.90;;;;;;5071606;28;20032;-77
2021/12/14 07:35:57;;;;;;;57.22;31.63;;;8.40;99.90;;;;;;5072146;28;20024;-77
2021/12/14 07:38:25;;;;;;;65.65;30.77;;;8.50;99.90;;;;;;5072550;28;20047;-77
2021/12/14 07:41:04;;;;;;;58.28;30.17;;;8.50;99.90;;;;;;5072361;28;20078;-77
2021/12/14 07:43:51;;;;;;;57.97;30.75;;;8.50;99.90;;;;;;5072482;28;20041;-78
2021/12/14 07:46:25;;;;;;;59.08;30.17;;;8.50;99.90;;;;;;5070006;28;20112;-78
2021/12/14 07:49:01;;;;;;;58.33;30.85;;;8.60;99.90;;;;;;5051584;28;20485;-79
2021/12/14 07:51:30;;;;;;;60.70;30.85;;;8.50;99.90;;;;;;5052305;28;20082;-79
2021/12/14 07:54:04;;;;;;;51.85;30.02;;;8.40;99.90;;;;;;5052425;28;20024;-79
2021/12/14 07:56:37;;;;;;;58.25;31.60;;;8.50;99.90;;;;;;5052281;28;20025;-79
2021/12/14 07:59:10;;;;;;;57.67;31.67;;;8.70;99.90;;;;;;5052335;28;20025;-79
2021/12/14 08:01:36;;;;;;;60.85;30.90;;;8.70;99.90;;;;;;5062715;28;20024;-80
2021/12/14 08:04:06;;;;;;;60.08;30.50;;;8.80;99.90;;;;;;5075075;28;20047;-78
2021/12/14 08:07:01;;;;;;;54.75;31.58;;;8.70;99.90;;;;;;5075521;28;20135;-79
2021/12/14 08:09:48;;;;;;;58.95;30.90;;;8.70;99.90;;;;;;5074831;28;20048;-79
2021/12/14 08:12:45;;;;;;;56.40;31.02;;;8.80;99.90;;;;;;5075826;28;20108;-78
2021/12/14 08:15:27;;;;;;;57.72;29.92;;;8.90;99.90;;;;;;5067700;28;20076;-79
2021/12/14 08:18:04;;;;;;;60.55;30.75;;;8.90;99.90;;;;;;5055606;28;20029;-79
2021/12/14 08:20:32;;;;;;;55.90;30.17;;;9.10;99.90;;;;;;5055626;28;20395;-79
2021/12/14 08:23:15;;;;;;;55.03;30.77;;;9.10;99.90;;;;;;5055538;28;20041;-79
2021/12/14 08:25:42;;;;;;;56.92;31.63;;;9.10;99.90;;;;;;5061861;28;20038;-79
2021/12/14 08:28:09;;;;;;;55.20;30.50;;;9.00;99.90;;;;;;5071663;28;20033;-77
2021/12/14 08:30:39;;;;;;;55.83;31.00;;;9.10;99.90;;;;;;5075518;28;20469;-78
2021/12/14 08:33:17;;;;;;;59.53;31.83;;;9.00;99.90;;;;;;5075334;28;20064;-79
2021/12/14 08:35:43;;;;;;;64.60;31.65;;;9.10;99.90;;;;;;5075690;28;20082;-79
2021/12/14 08:38:09;;;;;;;59.70;32.53;;;8.90;99.90;;;;;;5073062;28;20028;-78
2021/12/14 08:40:39;;;;;;;60.20;32.65;;;8.90;99.90;;;;;;5056060;28;20029;-78
2021/12/14 08:43:20;;;;;;;59.88;32.67;;;8.90;99.90;;;;;;5055394;28;20545;-79
2021/12/14 08:45:58;;;;;;;62.75;32.03;;;9.00;99.90;;;;;;5068862;28;20025;-79
2021/12/14 08:48:26;;;;;;;60.22;31.38;;;8.80;99.90;;;;;;5072572;28;20021;-77
2021/12/14 08:50:56;;;;;;;63.53;33.85;;;8.60;99.90;;;;;;5056196;28;20055;-78
2021/12/14 08:53:30;;;;;;;65.10;32.33;;;8.50;99.90;;;;;;5054778;28;20029;-79
2021/12/14 08:55:59;;;;;;;61.42;32.85;;;8.70;99.90;;;;;;5073186;28;20028;-77
2021/12/14 08:58:26;;;;;;;70.38;33.78;;;8.60;99.90;;;;;;5075322;28;20033;-78
2021/12/14 09:00:57;;;;;;;68.82;32.28;;;8.80;99.90;;;;;;5074589;28;20381;-77
2021/12/14 09:03:40;;;;;;;59.50;32.23;;;8.90;99.90;;;;;;5075152;28;20040;-80
2021/12/14 09:06:08;;;;;;;;;;;8.90;99.90;;;;;;5075723;28;20297;-78
2021/12/14 09:08:34;;;;;;;62.70;31.48;;;8.90;99.90;;;;;;5068937;28;19909;-79
2021/12/14 09:11:01;;;;;;;63.42;31.77;;;9.00;99.90;;;;;;5055576;28;20029;-77
2021/12/14 09:13:27;;;;;;;60.03;32.83;;;9.00;99.90;;;;;;5055183;28;20424;-77
2021/12/14 09:15:59;;;;;;;61.47;31.70;;;8.90;99.90;;;;;;5054797;28;20064;-78
2021/12/14 09:18:27;;;;;;;58.33;31.30;;;8.80;99.90;;;;;;5055097;28;20096;-78
2021/12/14 09:20:57;;;;;;;60.85;32.72;;;8.70;99.90;;;;;;5055181;28;20041;-78
2021/12/14 09:23:30;;;;;;;62.15;32.47;;;8.90;99.90;;;;;;5054986;28;20439;-78
2021/12/14 09:25:56;;;;;;;60.67;32.30;;;8.90;99.90;;;;;;5063672;28;20025;-78
2021/12/14 09:28:25;;;;;;;61.60;30.70;;;8.90;99.90;;;;;;5073222;28;20381;-78
2021/12/14 09:31:00;;;;;;;59.20;31.55;;;8.90;99.90;;;;;;5074644;28;20027;-78
2021/12/14 09:33:27;;;;;;;66.57;33.45;;;8.80;99.90;;;;;;5075175;28;20059;-77
2021/12/14 09:35:56;;;;;;;62.67;32.63;;;8.80;99.90;;;;;;5074631;28;20028;-78
2021/12/14 09:38:33;;;;;;;55.75;31.83;;;8.80;99.90;;;;;;5073712;28;20025;-78
2021/12/14 09:41:03;;;;;;;59.13;31.27;;;8.90;99.90;;;;;;5072243;28;20036;-77
2021/12/14 09:43:29;;;;;;;57.45;31.48;;;9.00;99.90;;;;;;5075006;28;20041;-78
2021/12/14 09:45:57;;;;;;;59.67;32.50;;;9.10;99.90;;;;;;5073516;28;20032;-78
2021/12/14 09:48:27;;;;;;;60.85;31.77;;;9.20;99.90;;;;;;5074804;28;20040;-79
2021/12/14 09:50:56;;;;;;;64.38;33.00;;;9.00;99.90;;;;;;5074928;28;20036;-79
2021/12/14 09:53:25;;;;;;;62.70;31.95;;;9.00;99.90;;;;;;5074358;28;20024;-79
2021/12/14 09:55:55;;;;;;;68.43;31.20;;;9.00;99.90;;;;;;5074647;28;20389;-79
2021/12/14 09:58:26;;;;;;;62.22;32.88;;;9.00;99.90;;;;;;5074623;28;20537;-77
2021/12/14 10:01:10;;;;;;;60.22;32.38;;;9.10;99.90;;;;;;5074360;28;20103;-79
2021/12/14 10:03:37;;;;;;;59.45;31.95;;;9.20;99.90;;;;;;5074597;28;20036;-79
2021/12/14 10:06:09;;;;;;;60.10;29.60;;;9.00;99.90;;;;;;5074219;28;20075;-80
2021/12/14 10:08:44;;;;;;;68.93;34.38;;;9.10;99.90;;;;;;5053154;28;20401;-78
2021/12/14 10:11:27;;;;;;;82.93;39.85;;;9.00;99.90;;;;;;5063527;28;20066;-77
2021/12/14 10:13:56;;;;;;;58.60;32.75;;;9.30;99.90;;;;;;5074204;28;20442;-79
2021/12/14 10:16:22;;;;;;;59.28;33.70;;;9.30;99.90;;;;;;5074243;28;20036;-79
2021/12/14 10:19:01;;;;;;;57.85;32.10;;;9.20;99.90;;;;;;5074730;28;20031;-79
2021/12/14 10:21:36;;;;;;;60.05;32.42;;;9.20;99.90;;;;;;5074145;28;20028;-79
2021/12/14 10:24:05;;;;;;;58.08;30.50;;;9.10;99.90;;;;;;5072597;28;20488;-79
2021/12/14 10:26:33;;;;;;;74.03;36.88;;;9.20;99.90;;;;;;5071589;28;20029;-79
2021/12/14 10:29:00;;;;;;;61.15;33.03;;;9.30;99.90;;;;;;5073713;28;20103;-79
2021/12/14 10:31:41;;;;;;;62.88;32.95;;;9.30;99.90;;;;;;5073923;28;20032;-79
2021/12/14 10:34:13;;;;;;;64.03;33.17;;;9.40;99.90;;;;;;5074168;28;20465;-79
2021/12/14 10:36:43;;;;;;;;;;;9.40;99.90;;;;;;5074744;28;20032;-79
2021/12/14 10:44:32;;;;;;;58.22;31.65;;;9.40;99.90;;;;;;5073699;28;20119;-79
2021/12/14 10:46:59;;;;;;;52.03;25.40;;;9.30;99.90;;;;;;5073836;28;20103;-79
2021/12/14 10:49:25;;;;;;;59.83;30.80;;;9.30;99.90;;;;;;5076689;28;20028;-79
2021/12/14 10:51:56;;;;;;;59.38;31.80;;;9.20;99.90;;;;;;5073583;28;20123;-79
2021/12/14 10:54:22;;;;;;;64.68;31.35;;;9.30;99.90;;;;;;5072570;28;20040;-79
2021/12/14 10:56:52;;;;;;;64.18;32.20;;;9.40;99.90;;;;;;5073332;28;20078;-79
2021/12/14 10:59:23;;;;;;;66.72;32.17;;;9.40;99.90;;;;;;5077447;28;20067;-79
2021/12/14 11:01:50;;;;;;;61.38;32.38;;;9.50;99.90;;;;;;5076020;28;20043;-78
2021/12/14 11:04:33;;;;;;;66.30;32.00;;;9.40;99.90;;;;;;5074335;28;20051;-79
2021/12/14 11:07:01;;;;;;;57.88;29.95;;;9.50;99.90;;;;;;5073384;28;20112;-79
2021/12/14 11:09:45;;;;;;;50.95;28.95;;;9.60;99.90;;;;;;5060029;28;20127;-78
2021/12/14 11:12:33;;;;;;;59.50;31.33;;;9.50;99.90;;;;;;5052917;28;20079;-79
2021/12/14 11:15:11;;;;;;;57.50;28.50;;;9.50;99.90;;;;;;5053349;28;20017;-79
2021/12/14 11:20:34;;;;;;;50.65;29.50;;;9.60;99.90;;;;;;5057947;28;20063;-78
2021/12/14 11:23:14;;;;;;;61.30;30.05;;;9.70;99.90;;;;;;5070907;28;20396;-73
2021/12/14 11:26:00;;;;;;;60.70;31.17;;;9.80;99.90;;;;;;5072290;28;20028;-77
2021/12/14 11:28:38;;;;;;;49.38;27.80;;;9.70;99.90;;;;;;5072447;28;20464;-77
2021/12/14 11:31:12;;;;;;;57.30;29.25;;;9.90;99.90;;;;;;5072694;28;20083;-74
2021/12/14 11:33:47;;;;;;;55.75;28.20;;;9.80;99.90;;;;;;5072747;28;20056;-77
2021/12/14 11:36:22;;;;;;;54.72;30.25;;;9.80;99.90;;;;;;5072087;28;20060;-77
2021/12/14 11:39:06;;;;;;;55.53;30.33;;;9.90;99.90;;;;;;5072975;28;20035;-78
2021/12/14 11:41:55;;;;;;;59.55;31.45;;;9.90;99.90;;;;;;5071093;28;20614;-78
2021/12/14 11:44:38;;;;;;;54.70;30.13;;;10.00;99.90;;;;;;5052205;28;20378;-78
2021/12/14 11:50:05;;;;;;;51.42;29.30;;;9.80;99.90;;;;;;5052910;28;20048;-80
2021/12/14 11:52:35;;;;;;;56.58;31.13;;;9.80;99.90;;;;;;5069550;28;20033;-75
2021/12/14 11:55:13;;;;;;;56.58;31.27;;;9.80;99.90;;;;;;5071202;28;20385;-74
2021/12/14 11:57:39;;;;;;;51.97;27.33;;;9.90;99.90;;;;;;5071418;28;20491;-72
2021/12/14 12:00:09;;;;;;;54.63;31.20;;;9.90;99.90;;;;;;5072601;28;20028;-73
2021/12/14 12:02:35;;;;;;;51.33;32.33;;;9.90;99.90;;;;;;5072344;28;20220;-73
2021/12/14 12:05:29;;;;;;;51.15;29.15;;;10.00;99.90;;;;;;5072771;28;20054;-79
2021/12/14 12:10:54;;;;;;;42.17;24.65;;;10.20;99.90;;;;;;5051941;28;20037;-84
2021/12/14 12:13:36;;;;;;;50.17;28.58;;;10.10;99.90;;;;;;5052584;28;20036;-79
2021/12/14 12:16:35;;;;;;;56.38;30.45;;;10.10;99.90;;;;;;5052539;28;20039;-73
2021/12/14 12:19:13;;;;;;;48.25;29.23;;;10.20;99.90;;;;;;5051590;28;20048;-83
2021/12/14 12:21:41;;;;;;;52.83;29.85;;;10.10;99.90;;;;;;5054824;28;20033;-83
2021/12/14 12:24:38;;;;;;;44.00;28.23;;;10.10;99.90;;;;;;5061623;28;20029;-84
2021/12/14 12:27:32;;;;;;;55.55;30.15;;;10.20;99.90;;;;;;5081812;28;20056;-84
2021/12/14 12:30:13;;;;;;;45.83;27.45;;;10.20;99.90;;;;;;5072734;28;20094;-83
2021/12/14 12:32:39;;;;;;;51.13;28.37;;;10.20;99.90;;;;;;5073129;28;20024;-84
2021/12/14 12:35:34;;;;;;;55.63;29.48;;;10.20;99.90;;;;;;5072997;28;20369;-83
2021/12/14 12:38:22;;;;;;;47.17;29.98;;;10.10;99.90;;;;;;5072702;28;20033;-75
2021/12/14 12:41:07;;;;;;;42.30;26.83;;;10.20;99.90;;;;;;5072476;28;20033;-73
2021/12/14 12:43:50;;;;;;;52.55;29.88;;;10.10;99.90;;;;;;5072002;28;20078;-74
2021/12/14 12:46:30;;;;;;;50.58;29.35;;;10.20;99.90;;;;;;5072121;28;20579;-73
2021/12/14 12:49:05;;;;;;;45.47;28.60;;;10.20;99.90;;;;;;5074670;28;20056;-75
2021/12/14 12:51:42;;;;;;;43.78;28.27;;;10.20;99.90;;;;;;5074606;28;20090;-73
2021/12/14 12:54:29;;;;;;;47.10;26.98;;;10.20;99.90;;;;;;5075750;28;20043;-74
2021/12/14 12:57:13;;;;;;;48.72;29.52;;;10.30;99.90;;;;;;5075809;28;20127;-72
2021/12/14 12:59:56;;;;;;;51.78;28.90;;;10.30;99.90;;;;;;5073900;28;20465;-72
2021/12/14 13:02:30;;;;;;;47.67;29.58;;;10.30;99.90;;;;;;5075683;28;20087;-75
2021/12/14 13:05:27;;;;;;;52.85;29.98;;;10.30;99.90;;;;;;5075894;28;20037;-77
2021/12/14 13:08:06;;;;;;;51.80;27.98;;;10.30;99.90;;;;;;5073319;28;20421;-72
2021/12/14 13:11:00;;;;;;;50.00;28.55;;;10.40;99.90;;;;;;5054597;28;20036;-73
2021/12/14 13:13:35;;;;;;;47.22;27.15;;;10.40;99.90;;;;;;5054350;28;20577;-77
2021/12/14 13:16:23;;;;;;;41.08;27.30;;;10.40;99.90;;;;;;5055561;28;20393;-72
2021/12/14 13:19:11;;;;;;;45.00;27.77;;;10.40;99.90;;;;;;5054035;28;20082;-73
2021/12/14 13:21:48;;;;;;;49.22;27.75;;;10.40;99.90;;;;;;5055333;28;20417;-72
2021/12/14 13:24:22;;;;;;;47.85;28.25;;;10.60;99.90;;;;;;5054072;28;20049;-78
2021/12/14 13:27:07;;;;;;;44.10;27.80;;;10.70;99.90;;;;;;5071120;28;20120;-72
2021/12/14 13:29:35;;;;;;;50.45;25.48;;;10.70;99.90;;;;;;5074349;28;20037;-72
2021/12/14 13:32:32;;;;;;;49.25;28.70;;;10.60;99.90;;;;;;5075252;28;20024;-84
2021/12/14 13:35:04;;;;;;;44.85;28.52;;;10.70;99.90;;;;;;5075193;28;20488;-77
2021/12/14 13:37:56;;;;;;;47.90;30.40;;;10.90;99.90;;;;;;5074858;28;20032;-72
2021/12/14 13:40:24;;;;;;;40.85;28.02;;;10.90;99.90;;;;;;5074997;28;20526;-73
2021/12/14 13:43:03;;;;;;;44.55;28.95;;;10.70;99.90;;;;;;5073898;28;20392;-73
2021/12/14 13:45:33;;;;;;;41.47;27.67;;;10.90;99.90;;;;;;5073879;28;20461;-76
2021/12/14 13:48:01;;;;;;;47.92;28.42;;;10.90;99.90;;;;;;5073849;28;20071;-83
2021/12/14 13:50:30;;;;;;;45.65;28.92;;;10.70;99.90;;;;;;5073839;28;20389;-79
2021/12/14 13:52:57;;;;;;;46.88;27.75;;;10.60;99.90;;;;;;5074620;28;20040;-82
2021/12/14 13:55:29;;;;;;;47.03;28.50;;;10.60;99.90;;;;;;5073455;28;20024;-81